createdAt,value
2022-10-02T00:00:12.836Z,0.00
2022-10-02T00:01:12.146Z,0.00
2022-10-02T00:02:12.092Z,0.00
2022-10-02T00:03:12.106Z,0.00
2022-10-02T00:04:12.146Z,0.00
2022-10-02T00:05:12.093Z,0.00
2022-10-02T00:06:12.050Z,0.00
2022-10-02T00:07:12.060Z,0.00
2022-10-02T00:08:12.055Z,0.00
2022-10-02T00:09:12.029Z,0.00
2022-10-02T00:10:12.015Z,0.00
2022-10-02T00:11:11.998Z,0.00
2022-10-02T00:12:11.983Z,0.00
2022-10-02T00:13:11.997Z,0.00
2022-10-02T00:14:11.975Z,0.00
2022-10-02T00:15:11.963Z,0.00
2022-10-02T00:16:12.057Z,0.00
2022-10-02T00:17:11.922Z,0.00
2022-10-02T00:18:11.915Z,0.00
2022-10-02T00:19:11.905Z,0.00
2022-10-02T00:20:11.906Z,0.00
2022-10-02T00:21:11.915Z,0.00
2022-10-02T00:22:11.886Z,0.00
2022-10-02T00:23:11.885Z,0.00
2022-10-02T00:24:11.860Z,0.00
2022-10-02T00:25:11.857Z,0.00
2022-10-02T00:26:11.828Z,0.00
2022-10-02T00:27:11.838Z,0.00
2022-10-02T00:28:11.878Z,0.00
2022-10-02T00:29:11.828Z,0.00
2022-10-02T00:30:11.822Z,0.00
2022-10-02T00:31:11.799Z,0.00
2022-10-02T00:32:11.789Z,0.00
2022-10-02T00:33:11.768Z,0.00
2022-10-02T00:34:15.202Z,0.00
2022-10-02T00:35:11.732Z,0.00
2022-10-02T00:36:11.753Z,0.00
2022-10-02T00:37:11.757Z,0.00
2022-10-02T00:38:11.705Z,0.00
2022-10-02T00:39:11.683Z,0.00
2022-10-02T00:40:11.699Z,0.00
2022-10-02T00:41:11.676Z,0.00
2022-10-02T00:42:11.702Z,0.00
2022-10-02T00:43:11.681Z,0.00
2022-10-02T00:44:11.642Z,0.00
2022-10-02T00:45:11.632Z,0.00
2022-10-02T00:46:11.698Z,0.00
2022-10-02T00:47:11.622Z,0.00
2022-10-02T00:48:11.622Z,0.00
2022-10-02T00:49:11.579Z,0.00
2022-10-02T00:50:11.590Z,0.00
2022-10-02T00:51:11.563Z,0.00
2022-10-02T00:52:11.552Z,0.00
2022-10-02T00:53:11.553Z,0.00
2022-10-02T00:54:11.532Z,0.00
2022-10-02T00:55:11.517Z,0.00
2022-10-02T00:56:11.524Z,0.00
2022-10-02T00:57:11.526Z,0.00
2022-10-02T00:58:11.526Z,0.00
2022-10-02T00:59:11.464Z,0.00
2022-10-02T01:00:11.471Z,0.00
2022-10-02T01:01:11.536Z,0.00
2022-10-02T01:02:11.521Z,0.00
2022-10-02T01:03:11.427Z,0.00
2022-10-02T01:04:11.426Z,0.00
2022-10-02T01:05:11.405Z,0.00
2022-10-02T01:06:11.435Z,0.00
2022-10-02T01:07:11.461Z,0.00
2022-10-02T01:08:11.395Z,0.00
2022-10-02T01:09:11.376Z,0.00
2022-10-02T01:10:11.369Z,0.00
2022-10-02T01:11:11.375Z,0.00
2022-10-02T01:12:11.349Z,0.00
2022-10-02T01:13:11.360Z,0.00
2022-10-02T01:14:11.317Z,0.00
2022-10-02T01:15:11.342Z,0.00
2022-10-02T01:16:11.382Z,0.00
2022-10-02T01:17:11.317Z,0.00
2022-10-02T01:18:11.278Z,0.00
2022-10-02T01:19:11.277Z,0.00
2022-10-02T01:20:11.258Z,0.00
2022-10-02T01:21:11.471Z,0.00
2022-10-02T01:22:11.291Z,0.00
2022-10-02T01:23:11.238Z,0.00
2022-10-02T01:24:11.219Z,0.00
2022-10-02T01:25:11.213Z,0.00
2022-10-02T01:26:11.213Z,0.00
2022-10-02T01:27:11.197Z,0.00
2022-10-02T01:28:11.242Z,0.00
2022-10-02T01:29:11.171Z,0.00
2022-10-02T01:30:11.141Z,0.00
2022-10-02T01:31:11.205Z,0.00
2022-10-02T01:32:11.131Z,0.00
2022-10-02T01:33:11.144Z,0.00
2022-10-02T01:34:11.092Z,0.00
2022-10-02T01:35:11.094Z,0.00
2022-10-02T01:36:11.102Z,0.00
2022-10-02T01:37:11.071Z,0.00
2022-10-02T01:38:11.055Z,0.00
2022-10-02T01:39:11.053Z,0.00
2022-10-02T01:40:11.033Z,0.00
2022-10-02T01:41:11.043Z,0.00
2022-10-02T01:42:11.003Z,0.00
2022-10-02T01:43:11.007Z,0.00
2022-10-02T01:44:11.002Z,0.00
2022-10-02T01:45:10.986Z,0.00
2022-10-02T01:46:11.042Z,0.00
2022-10-02T01:47:10.973Z,0.00
2022-10-02T01:48:10.954Z,0.00
2022-10-02T01:49:10.965Z,0.00
2022-10-02T01:50:10.934Z,0.00
2022-10-02T01:51:10.944Z,0.00
2022-10-02T01:52:10.901Z,0.00
2022-10-02T01:53:10.934Z,0.00
2022-10-02T01:54:10.886Z,0.00
2022-10-02T01:55:11.896Z,0.00
2022-10-02T01:56:10.868Z,0.00
2022-10-02T01:57:10.859Z,0.00
2022-10-02T01:58:10.848Z,0.00
2022-10-02T01:59:10.845Z,0.00
2022-10-02T02:00:10.855Z,0.00
2022-10-02T02:01:10.995Z,0.00
2022-10-02T02:02:10.896Z,0.00
2022-10-02T02:03:10.778Z,0.00
2022-10-02T02:04:10.796Z,0.00
2022-10-02T02:05:10.769Z,0.00
2022-10-02T02:06:11.779Z,0.00
2022-10-02T02:07:10.773Z,0.00
2022-10-02T02:08:10.753Z,0.00
2022-10-02T02:09:10.737Z,0.00
2022-10-02T02:10:10.728Z,0.00
2022-10-02T02:11:10.709Z,0.00
2022-10-02T02:12:10.678Z,0.00
2022-10-02T02:13:10.677Z,0.00
2022-10-02T02:14:10.669Z,0.00
2022-10-02T02:15:10.659Z,0.00
2022-10-02T02:16:10.743Z,0.00
2022-10-02T02:17:10.665Z,0.00
2022-10-02T02:18:10.619Z,0.00
2022-10-02T02:19:10.640Z,0.00
2022-10-02T02:20:10.590Z,0.00
2022-10-02T02:21:10.600Z,0.00
2022-10-02T02:22:10.590Z,0.00
2022-10-02T02:23:10.590Z,0.00
2022-10-02T02:24:10.571Z,0.00
2022-10-02T02:25:10.561Z,0.00
2022-10-02T02:26:10.552Z,0.00
2022-10-02T02:27:10.521Z,0.00
2022-10-02T02:28:10.597Z,0.00
2022-10-02T02:29:10.523Z,0.00
2022-10-02T02:30:10.502Z,0.00
2022-10-02T02:31:10.554Z,0.00
2022-10-02T02:32:10.483Z,0.00
2022-10-02T02:33:10.465Z,0.00
2022-10-02T02:34:10.476Z,0.00
2022-10-02T02:35:10.443Z,0.00
2022-10-02T02:36:10.454Z,0.00
2022-10-02T02:37:10.429Z,0.00
2022-10-02T02:38:10.423Z,0.00
2022-10-02T02:39:10.403Z,0.00
2022-10-02T02:40:10.404Z,0.00
2022-10-02T02:41:10.409Z,0.00
2022-10-02T02:42:10.364Z,0.00
2022-10-02T02:43:10.355Z,0.00
2022-10-02T02:44:10.354Z,0.00
2022-10-02T02:45:10.342Z,0.00
2022-10-02T02:46:10.432Z,0.00
2022-10-02T02:47:10.336Z,0.00
2022-10-02T02:48:10.346Z,0.00
2022-10-02T02:49:10.300Z,0.00
2022-10-02T02:50:10.277Z,0.00
2022-10-02T02:51:10.264Z,0.00
2022-10-02T02:52:10.284Z,0.00
2022-10-02T02:53:10.285Z,0.00
2022-10-02T02:54:10.246Z,0.00
2022-10-02T02:55:10.225Z,0.00
2022-10-02T02:56:10.339Z,0.00
2022-10-02T02:57:10.208Z,0.00
2022-10-02T02:58:10.219Z,0.00
2022-10-02T02:59:10.178Z,0.00
2022-10-02T03:00:10.183Z,0.00
2022-10-02T03:01:10.369Z,0.00
2022-10-02T03:02:10.204Z,0.00
2022-10-02T03:03:10.169Z,0.00
2022-10-02T03:04:10.129Z,0.00
2022-10-02T03:05:10.109Z,0.00
2022-10-02T03:06:10.216Z,0.00
2022-10-02T03:07:10.109Z,0.00
2022-10-02T03:08:10.088Z,0.00
2022-10-02T03:09:10.079Z,0.00
2022-10-02T03:10:10.091Z,0.00
2022-10-02T03:11:10.050Z,0.00
2022-10-02T03:12:10.081Z,0.00
2022-10-02T03:13:10.048Z,0.00
2022-10-02T03:14:10.022Z,0.00
2022-10-02T03:15:10.014Z,0.00
2022-10-02T03:16:10.234Z,0.00
2022-10-02T03:17:10.003Z,0.00
2022-10-02T03:18:09.981Z,0.00
2022-10-02T03:19:09.963Z,0.00
2022-10-02T03:20:09.972Z,0.00
2022-10-02T03:21:09.962Z,0.00
2022-10-02T03:22:09.951Z,0.00
2022-10-02T03:23:10.086Z,0.00
2022-10-02T03:24:09.944Z,0.00
2022-10-02T03:25:09.912Z,0.00
2022-10-02T03:26:09.892Z,0.00
2022-10-02T03:27:09.874Z,0.00
2022-10-02T03:28:09.917Z,0.00
2022-10-02T03:29:09.914Z,0.00
2022-10-02T03:30:09.863Z,0.00
2022-10-02T03:31:09.898Z,0.00
2022-10-02T03:32:09.836Z,0.00
2022-10-02T03:33:09.825Z,0.00
2022-10-02T03:34:09.816Z,0.00
2022-10-02T03:35:09.816Z,0.00
2022-10-02T03:36:09.786Z,0.00
2022-10-02T03:37:09.807Z,0.00
2022-10-02T03:38:09.768Z,0.00
2022-10-02T03:39:26.259Z,0.00
2022-10-02T03:40:10.748Z,0.00
2022-10-02T03:41:09.728Z,0.00
2022-10-02T03:42:09.737Z,0.00
2022-10-02T03:43:09.736Z,0.00
2022-10-02T03:44:09.707Z,0.00
2022-10-02T03:45:09.687Z,0.00
2022-10-02T03:46:09.769Z,0.00
2022-10-02T03:47:09.700Z,0.00
2022-10-02T03:48:09.649Z,0.00
2022-10-02T03:49:09.659Z,0.00
2022-10-02T03:50:09.639Z,0.00
2022-10-02T03:51:09.669Z,0.00
2022-10-02T03:52:09.630Z,0.00
2022-10-02T03:53:09.620Z,0.00
2022-10-02T03:54:09.599Z,0.00
2022-10-02T03:55:09.601Z,0.00
2022-10-02T03:56:09.589Z,0.00
2022-10-02T03:57:09.559Z,0.00
2022-10-02T03:58:09.560Z,0.00
2022-10-02T03:59:09.553Z,0.00
2022-10-02T04:00:09.529Z,0.00
2022-10-02T04:01:09.521Z,0.00
2022-10-02T04:02:09.606Z,0.00
2022-10-02T04:03:09.531Z,0.00
2022-10-02T04:04:09.481Z,0.00
2022-10-02T04:05:09.502Z,0.00
2022-10-02T04:06:09.496Z,0.00
2022-10-02T04:07:09.458Z,0.00
2022-10-02T04:08:09.442Z,0.00
2022-10-02T04:09:09.422Z,0.00
2022-10-02T04:10:09.433Z,0.00
2022-10-02T04:11:09.417Z,0.00
2022-10-02T04:12:09.424Z,0.00
2022-10-02T04:13:09.383Z,0.00
2022-10-02T04:14:09.383Z,0.00
2022-10-02T04:15:09.377Z,0.00
2022-10-02T04:16:09.396Z,0.00
2022-10-02T04:17:09.364Z,0.00
2022-10-02T04:18:09.357Z,0.00
2022-10-02T04:19:09.335Z,0.00
2022-10-02T04:20:09.325Z,0.00
2022-10-02T04:21:09.316Z,0.00
2022-10-02T04:22:09.295Z,0.00
2022-10-02T04:23:09.306Z,0.00
2022-10-02T04:24:09.270Z,0.00
2022-10-02T04:25:09.257Z,0.00
2022-10-02T04:26:09.256Z,0.00
2022-10-02T04:27:09.246Z,0.00
2022-10-02T04:28:09.302Z,0.00
2022-10-02T04:29:09.226Z,0.00
2022-10-02T04:30:09.219Z,0.00
2022-10-02T04:31:09.237Z,0.00
2022-10-02T04:32:09.187Z,0.00
2022-10-02T04:33:09.198Z,0.00
2022-10-02T04:34:09.168Z,0.00
2022-10-02T04:35:09.158Z,0.00
2022-10-02T04:36:09.137Z,0.00
2022-10-02T04:37:09.140Z,0.00
2022-10-02T04:38:09.148Z,0.00
2022-10-02T04:39:09.100Z,0.00
2022-10-02T04:40:09.118Z,0.00
2022-10-02T04:41:09.114Z,0.00
2022-10-02T04:42:09.088Z,0.00
2022-10-02T04:43:09.088Z,0.00
2022-10-02T04:44:09.060Z,0.00
2022-10-02T04:45:09.049Z,0.00
2022-10-02T04:46:09.124Z,0.00
2022-10-02T04:47:09.050Z,0.00
2022-10-02T04:48:09.011Z,0.00
2022-10-02T04:49:09.021Z,0.00
2022-10-02T04:50:09.013Z,0.00
2022-10-02T04:51:09.168Z,0.00
2022-10-02T04:52:08.981Z,0.00
2022-10-02T04:53:08.991Z,0.00
2022-10-02T04:54:09.052Z,0.00
2022-10-02T04:55:08.922Z,0.00
2022-10-02T04:56:09.058Z,0.00
2022-10-02T04:57:08.912Z,0.00
2022-10-02T04:58:08.905Z,0.00
2022-10-02T04:59:08.901Z,0.00
2022-10-02T05:00:08.884Z,0.00
2022-10-02T05:01:08.926Z,0.00
2022-10-02T05:02:08.984Z,0.00
2022-10-02T05:03:08.854Z,0.00
2022-10-02T05:04:08.844Z,0.00
2022-10-02T05:05:08.814Z,0.00
2022-10-02T05:06:08.826Z,4.00
2022-10-02T05:07:08.804Z,4.00
2022-10-02T05:08:08.805Z,0.00
2022-10-02T05:09:10.235Z,0.00
2022-10-02T05:10:08.824Z,4.00
2022-10-02T05:11:08.765Z,4.00
2022-10-02T05:12:08.754Z,4.00
2022-10-02T05:13:08.765Z,4.00
2022-10-02T05:14:08.736Z,8.00
2022-10-02T05:15:08.736Z,8.00
2022-10-02T05:16:08.811Z,8.00
2022-10-02T05:17:08.692Z,8.00
2022-10-02T05:18:08.701Z,8.00
2022-10-02T05:19:08.676Z,12.00
2022-10-02T05:20:08.684Z,12.00
2022-10-02T05:21:08.659Z,16.00
2022-10-02T05:22:08.651Z,12.00
2022-10-02T05:23:08.629Z,12.00
2022-10-02T05:24:08.619Z,16.00
2022-10-02T05:25:08.624Z,24.00
2022-10-02T05:26:13.451Z,24.00
2022-10-02T05:27:09.588Z,28.00
2022-10-02T05:28:08.726Z,28.00
2022-10-02T05:29:08.579Z,28.00
2022-10-02T05:30:08.559Z,32.00
2022-10-02T05:31:08.598Z,32.00
2022-10-02T05:32:08.549Z,32.00
2022-10-02T05:33:08.540Z,32.00
2022-10-02T05:34:08.510Z,36.00
2022-10-02T05:35:08.543Z,40.00
2022-10-02T05:36:08.511Z,40.00
2022-10-02T05:37:08.470Z,40.00
2022-10-02T05:38:08.562Z,48.00
2022-10-02T05:39:08.471Z,56.00
2022-10-02T05:40:08.464Z,68.00
2022-10-02T05:41:08.458Z,76.00
2022-10-02T05:42:08.442Z,88.00
2022-10-02T05:43:08.435Z,108.00
2022-10-02T05:44:08.422Z,116.00
2022-10-02T05:45:08.439Z,124.00
2022-10-02T05:46:08.417Z,140.00
2022-10-02T05:47:08.400Z,168.00
2022-10-02T05:48:08.383Z,192.00
2022-10-02T05:49:08.380Z,212.00
2022-10-02T05:50:08.364Z,200.00
2022-10-02T05:51:08.348Z,168.00
2022-10-02T05:52:08.353Z,140.00
2022-10-02T05:53:08.334Z,148.00
2022-10-02T05:54:08.303Z,156.00
2022-10-02T05:55:08.310Z,172.00
2022-10-02T05:56:08.304Z,176.00
2022-10-02T05:57:08.346Z,180.00
2022-10-02T05:58:08.305Z,148.00
2022-10-02T05:59:08.254Z,100.00
2022-10-02T06:00:08.264Z,100.00
2022-10-02T06:01:08.248Z,88.00
2022-10-02T06:02:08.272Z,92.00
2022-10-02T06:03:08.202Z,128.00
2022-10-02T06:04:08.248Z,156.00
2022-10-02T06:05:08.195Z,192.00
2022-10-02T06:06:08.176Z,224.00
2022-10-02T06:07:08.167Z,252.00
2022-10-02T06:08:08.157Z,252.00
2022-10-02T06:09:08.173Z,212.00
2022-10-02T06:10:08.146Z,216.00
2022-10-02T06:11:08.125Z,208.00
2022-10-02T06:12:08.117Z,232.00
2022-10-02T06:13:08.120Z,244.00
2022-10-02T06:14:08.128Z,220.00
2022-10-02T06:15:08.138Z,208.00
2022-10-02T06:16:08.128Z,204.00
2022-10-02T06:17:08.066Z,224.00
2022-10-02T06:18:08.074Z,240.00
2022-10-02T06:19:08.066Z,280.00
2022-10-02T06:20:08.044Z,352.00
2022-10-02T06:21:08.044Z,432.00
2022-10-02T06:22:08.022Z,528.00
2022-10-02T06:23:07.991Z,496.00
2022-10-02T06:24:07.998Z,488.00
2022-10-02T06:25:07.990Z,532.00
2022-10-02T06:26:08.001Z,548.00
2022-10-02T06:27:07.963Z,668.00
2022-10-02T06:28:08.035Z,680.00
2022-10-02T06:29:07.941Z,720.00
2022-10-02T06:30:07.961Z,736.00
2022-10-02T06:31:08.003Z,624.00
2022-10-02T06:32:07.900Z,612.00
2022-10-02T06:33:07.923Z,648.00
2022-10-02T06:34:07.893Z,636.00
2022-10-02T06:35:07.923Z,636.00
2022-10-02T06:36:07.903Z,556.00
2022-10-02T06:37:07.847Z,480.00
2022-10-02T06:38:07.853Z,444.00
2022-10-02T06:39:07.854Z,404.00
2022-10-02T06:40:07.843Z,372.00
2022-10-02T06:41:07.819Z,408.00
2022-10-02T06:42:07.872Z,436.00
2022-10-02T06:43:07.874Z,380.00
2022-10-02T06:44:08.835Z,448.00
2022-10-02T06:45:07.787Z,444.00
2022-10-02T06:46:08.959Z,432.00
2022-10-02T06:47:07.757Z,416.00
2022-10-02T06:48:08.445Z,408.00
2022-10-02T06:49:07.745Z,396.00
2022-10-02T06:50:08.716Z,388.00
2022-10-02T06:51:07.745Z,404.00
2022-10-02T06:52:07.832Z,388.00
2022-10-02T06:53:07.715Z,368.00
2022-10-02T06:54:08.369Z,356.00
2022-10-02T06:55:07.678Z,372.00
2022-10-02T06:56:08.376Z,352.00
2022-10-02T06:57:08.639Z,328.00
2022-10-02T06:58:08.095Z,312.00
2022-10-02T06:59:07.637Z,284.00
2022-10-02T07:00:07.795Z,280.00
2022-10-02T07:01:07.653Z,288.00
2022-10-02T07:02:07.650Z,300.00
2022-10-02T07:03:07.568Z,280.00
2022-10-02T07:04:07.577Z,264.00
2022-10-02T07:05:07.568Z,272.00
2022-10-02T07:06:07.538Z,304.00
2022-10-02T07:07:07.531Z,320.00
2022-10-02T07:08:07.529Z,320.00
2022-10-02T07:09:07.509Z,352.00
2022-10-02T07:10:07.522Z,468.00
2022-10-02T07:11:07.481Z,520.00
2022-10-02T07:12:07.469Z,544.00
2022-10-02T07:13:07.473Z,548.00
2022-10-02T07:14:07.441Z,588.00
2022-10-02T07:15:07.481Z,644.00
2022-10-02T07:16:07.443Z,688.00
2022-10-02T07:17:07.432Z,764.00
2022-10-02T07:18:07.420Z,772.00
2022-10-02T07:19:07.403Z,848.00
2022-10-02T07:20:07.382Z,788.00
2022-10-02T07:21:07.370Z,652.00
2022-10-02T07:22:25.874Z,668.00
2022-10-02T07:23:08.403Z,856.00
2022-10-02T07:24:07.332Z,1076.00
2022-10-02T07:25:07.347Z,936.00
2022-10-02T07:26:07.336Z,720.00
2022-10-02T07:27:07.332Z,804.00
2022-10-02T07:28:07.472Z,972.00
2022-10-02T07:29:07.307Z,728.00
2022-10-02T07:30:07.268Z,592.00
2022-10-02T07:31:07.389Z,460.00
2022-10-02T07:32:07.261Z,500.00
2022-10-02T07:33:07.255Z,632.00
2022-10-02T07:34:07.247Z,516.00
2022-10-02T07:35:07.224Z,384.00
2022-10-02T07:36:07.215Z,328.00
2022-10-02T07:37:07.242Z,344.00
2022-10-02T07:38:07.234Z,424.00
2022-10-02T07:39:07.194Z,400.00
2022-10-02T07:40:07.160Z,404.00
2022-10-02T07:41:07.206Z,524.00
2022-10-02T07:42:07.160Z,684.00
2022-10-02T07:43:07.157Z,676.00
2022-10-02T07:44:07.140Z,664.00
2022-10-02T07:45:07.178Z,716.00
2022-10-02T07:46:09.532Z,744.00
2022-10-02T07:47:07.119Z,892.00
2022-10-02T07:48:07.078Z,1044.00
2022-10-02T07:49:07.091Z,920.00
2022-10-02T07:50:07.087Z,992.00
2022-10-02T07:51:07.099Z,844.00
2022-10-02T07:52:07.039Z,640.00
2022-10-02T07:53:08.488Z,720.00
2022-10-02T07:54:07.058Z,912.00
2022-10-02T07:55:07.008Z,936.00
2022-10-02T07:56:07.016Z,956.00
2022-10-02T07:57:09.925Z,1012.00
2022-10-02T07:58:06.992Z,908.00
2022-10-02T07:59:06.989Z,1000.00
2022-10-02T08:00:06.971Z,968.00
2022-10-02T08:01:06.940Z,868.00
2022-10-02T08:02:07.051Z,748.00
2022-10-02T08:03:06.955Z,740.00
2022-10-02T08:04:07.008Z,736.00
2022-10-02T08:05:06.915Z,884.00
2022-10-02T08:06:06.902Z,920.00
2022-10-02T08:07:06.890Z,848.00
2022-10-02T08:08:06.913Z,776.00
2022-10-02T08:09:06.870Z,708.00
2022-10-02T08:10:06.871Z,600.00
2022-10-02T08:11:06.853Z,620.00
2022-10-02T08:12:06.832Z,792.00
2022-10-02T08:13:06.824Z,1260.00
2022-10-02T08:14:06.831Z,1696.00
2022-10-02T08:15:06.828Z,1944.00
2022-10-02T08:16:06.859Z,1652.00
2022-10-02T08:17:06.795Z,1512.00
2022-10-02T08:18:23.198Z,1264.00
2022-10-02T08:19:07.754Z,960.00
2022-10-02T08:20:06.764Z,1096.00
2022-10-02T08:21:06.875Z,1680.00
2022-10-02T08:22:06.712Z,2624.00
2022-10-02T08:23:06.739Z,3964.00
2022-10-02T08:24:06.724Z,4448.00
2022-10-02T08:25:06.707Z,4008.00
2022-10-02T08:26:06.765Z,4132.00
2022-10-02T08:27:06.686Z,3696.00
2022-10-02T08:28:06.756Z,4900.00
2022-10-02T08:29:06.655Z,5160.00
2022-10-02T08:30:06.625Z,5756.00
2022-10-02T08:31:06.646Z,4072.00
2022-10-02T08:32:06.646Z,2416.00
2022-10-02T08:33:06.631Z,1648.00
2022-10-02T08:34:06.600Z,1380.00
2022-10-02T08:35:06.606Z,1212.00
2022-10-02T08:36:06.600Z,1396.00
2022-10-02T08:37:06.607Z,2552.00
2022-10-02T08:38:06.558Z,3280.00
2022-10-02T08:39:06.548Z,3148.00
2022-10-02T08:40:06.558Z,3328.00
2022-10-02T08:41:06.538Z,3476.00
2022-10-02T08:42:06.518Z,3504.00
2022-10-02T08:43:06.520Z,3940.00
2022-10-02T08:44:06.498Z,2832.00
2022-10-02T08:45:06.496Z,3240.00
2022-10-02T08:46:06.576Z,3092.00
2022-10-02T08:47:06.481Z,3764.00
2022-10-02T08:48:06.440Z,3920.00
2022-10-02T08:49:06.441Z,4224.00
2022-10-02T08:50:06.440Z,3856.00
2022-10-02T08:51:06.420Z,3240.00
2022-10-02T08:52:06.421Z,3656.00
2022-10-02T08:53:06.381Z,4660.00
2022-10-02T08:54:06.420Z,5444.00
2022-10-02T08:55:06.371Z,5468.00
2022-10-02T08:56:06.351Z,4740.00
2022-10-02T08:57:06.341Z,4876.00
2022-10-02T08:58:06.332Z,4988.00
2022-10-02T08:59:06.373Z,4804.00
2022-10-02T09:00:06.317Z,4452.00
2022-10-02T09:01:06.372Z,4724.00
2022-10-02T09:02:06.367Z,4656.00
2022-10-02T09:03:06.338Z,3744.00
2022-10-02T09:04:06.286Z,3200.00
2022-10-02T09:05:06.284Z,3080.00
2022-10-02T09:06:06.271Z,3288.00
2022-10-02T09:07:06.270Z,3412.00
2022-10-02T09:08:06.245Z,3740.00
2022-10-02T09:09:06.229Z,5248.00
2022-10-02T09:10:06.207Z,5432.00
2022-10-02T09:11:06.203Z,4716.00
2022-10-02T09:12:06.194Z,4728.00
2022-10-02T09:13:06.256Z,4204.00
2022-10-02T09:14:06.204Z,3736.00
2022-10-02T09:15:06.176Z,3440.00
2022-10-02T09:16:06.194Z,2892.00
2022-10-02T09:17:06.148Z,2692.00
2022-10-02T09:18:06.148Z,2360.00
2022-10-02T09:19:06.130Z,2092.00
2022-10-02T09:20:06.157Z,2144.00
2022-10-02T09:21:10.781Z,2268.00
2022-10-02T09:22:07.089Z,1940.00
2022-10-02T09:23:06.068Z,1964.00
2022-10-02T09:24:06.058Z,1964.00
2022-10-02T09:25:06.056Z,2052.00
2022-10-02T09:26:06.059Z,1936.00
2022-10-02T09:27:06.029Z,1960.00
2022-10-02T09:28:06.086Z,2016.00
2022-10-02T09:29:06.009Z,2260.00
2022-10-02T09:30:06.019Z,2044.00
2022-10-02T09:31:05.988Z,2248.00
2022-10-02T09:32:05.960Z,2264.00
2022-10-02T09:33:06.011Z,2028.00
2022-10-02T09:34:05.958Z,2652.00
2022-10-02T09:35:05.982Z,3100.00
2022-10-02T09:36:05.921Z,2544.00
2022-10-02T09:37:06.942Z,2256.00
2022-10-02T09:38:05.947Z,2204.00
2022-10-02T09:39:05.915Z,1904.00
2022-10-02T09:40:05.894Z,2192.00
2022-10-02T09:41:05.881Z,2872.00
2022-10-02T09:42:05.862Z,3496.00
2022-10-02T09:43:05.913Z,3412.00
2022-10-02T09:44:05.855Z,3368.00
2022-10-02T09:45:05.836Z,3000.00
2022-10-02T09:46:05.896Z,3492.00
2022-10-02T09:47:05.803Z,3212.00
2022-10-02T09:48:05.835Z,2760.00
2022-10-02T09:49:05.814Z,2384.00
2022-10-02T09:50:05.786Z,2996.00
2022-10-02T09:51:05.775Z,2408.00
2022-10-02T09:52:05.789Z,2000.00
2022-10-02T09:53:05.754Z,1700.00
2022-10-02T09:54:05.746Z,1784.00
2022-10-02T09:55:05.765Z,1572.00
2022-10-02T09:56:05.743Z,1124.00
2022-10-02T09:57:05.695Z,988.00
2022-10-02T09:58:05.697Z,812.00
2022-10-02T09:59:05.722Z,780.00
2022-10-02T10:00:05.687Z,872.00
2022-10-02T10:01:05.727Z,1108.00
2022-10-02T10:02:05.827Z,980.00
2022-10-02T10:03:05.653Z,836.00
2022-10-02T10:04:05.617Z,1556.00
2022-10-02T10:05:06.784Z,2608.00
2022-10-02T10:06:05.628Z,2400.00
2022-10-02T10:07:05.599Z,2080.00
2022-10-02T10:08:05.598Z,2504.00
2022-10-02T10:09:05.588Z,2576.00
2022-10-02T10:10:05.589Z,2500.00
2022-10-02T10:11:05.552Z,1952.00
2022-10-02T10:12:05.548Z,2556.00
2022-10-02T10:13:05.530Z,1992.00
2022-10-02T10:14:05.519Z,1784.00
2022-10-02T10:15:08.998Z,1668.00
2022-10-02T10:16:05.593Z,2220.00
2022-10-02T10:17:05.511Z,2568.00
2022-10-02T10:18:05.494Z,2664.00
2022-10-02T10:19:05.504Z,2416.00
2022-10-02T10:20:05.458Z,1868.00
2022-10-02T10:21:05.482Z,2060.00
2022-10-02T10:22:05.432Z,2396.00
2022-10-02T10:23:05.432Z,2832.00
2022-10-02T10:24:05.411Z,3236.00
2022-10-02T10:25:05.424Z,4388.00
2022-10-02T10:26:05.387Z,5760.00
2022-10-02T10:27:08.145Z,9808.00
2022-10-02T10:28:06.256Z,9364.00
2022-10-02T10:29:05.364Z,8140.00
2022-10-02T10:30:05.364Z,6640.00
2022-10-02T10:31:05.362Z,5728.00
2022-10-02T10:32:05.374Z,5596.00
2022-10-02T10:33:05.333Z,5196.00
2022-10-02T10:34:05.307Z,5148.00
2022-10-02T10:35:05.314Z,4280.00
2022-10-02T10:36:05.314Z,3248.00
2022-10-02T10:37:05.294Z,2484.00
2022-10-02T10:38:05.264Z,2524.00
2022-10-02T10:39:05.262Z,3144.00
2022-10-02T10:40:05.244Z,2680.00
2022-10-02T10:41:05.298Z,1780.00
2022-10-02T10:42:05.248Z,1160.00
2022-10-02T10:43:08.804Z,1084.00
2022-10-02T10:44:05.195Z,1060.00
2022-10-02T10:45:05.197Z,1064.00
2022-10-02T10:46:05.263Z,972.00
2022-10-02T10:47:05.230Z,844.00
2022-10-02T10:48:05.197Z,804.00
2022-10-02T10:49:05.177Z,1076.00
2022-10-02T10:50:05.128Z,1664.00
2022-10-02T10:51:05.128Z,2692.00
2022-10-02T10:52:05.140Z,2900.00
2022-10-02T10:53:05.098Z,2056.00
2022-10-02T10:54:05.088Z,1668.00
2022-10-02T10:55:05.112Z,1424.00
2022-10-02T10:56:05.076Z,1384.00
2022-10-02T10:57:05.079Z,1684.00
2022-10-02T10:58:05.052Z,2000.00
2022-10-02T10:59:05.069Z,2728.00
2022-10-02T11:00:05.040Z,2316.00
2022-10-02T11:01:05.086Z,1876.00
2022-10-02T11:02:05.066Z,1748.00
2022-10-02T11:03:04.992Z,1640.00
2022-10-02T11:04:04.990Z,1784.00
2022-10-02T11:05:05.000Z,1652.00
2022-10-02T11:06:04.972Z,1840.00
2022-10-02T11:07:04.942Z,1788.00
2022-10-02T11:08:04.973Z,1472.00
2022-10-02T11:09:05.950Z,1260.00
2022-10-02T11:10:04.931Z,1312.00
2022-10-02T11:11:04.941Z,1480.00
2022-10-02T11:12:09.450Z,2200.00
2022-10-02T11:13:04.917Z,2620.00
2022-10-02T11:14:04.907Z,2220.00
2022-10-02T11:15:04.882Z,2124.00
2022-10-02T11:16:04.931Z,2204.00
2022-10-02T11:17:04.876Z,2132.00
2022-10-02T11:18:04.837Z,2668.00
2022-10-02T11:19:04.818Z,2968.00
2022-10-02T11:20:04.872Z,2724.00
2022-10-02T11:21:05.125Z,2156.00
2022-10-02T11:22:04.806Z,1756.00
2022-10-02T11:23:04.795Z,1572.00
2022-10-02T11:24:04.795Z,1440.00
2022-10-02T11:25:07.361Z,1708.00
2022-10-02T11:26:04.768Z,1960.00
2022-10-02T11:27:04.744Z,1900.00
2022-10-02T11:28:04.762Z,1772.00
2022-10-02T11:29:04.708Z,1704.00
2022-10-02T11:30:04.706Z,2180.00
2022-10-02T11:31:04.707Z,2492.00
2022-10-02T11:32:04.728Z,3384.00
2022-10-02T11:33:04.668Z,4052.00
2022-10-02T11:34:04.673Z,3652.00
2022-10-02T11:35:04.648Z,2904.00
2022-10-02T11:36:04.660Z,2156.00
2022-10-02T11:37:04.637Z,2364.00
2022-10-02T11:38:04.655Z,2656.00
2022-10-02T11:39:04.619Z,2436.00
2022-10-02T11:40:04.589Z,2652.00
2022-10-02T11:41:04.629Z,2528.00
2022-10-02T11:42:04.591Z,2328.00
2022-10-02T11:43:04.569Z,1964.00
2022-10-02T11:44:04.991Z,1932.00
2022-10-02T11:45:04.561Z,2244.00
2022-10-02T11:46:04.570Z,2880.00
2022-10-02T11:47:04.529Z,2660.00
2022-10-02T11:48:04.555Z,2356.00
2022-10-02T11:49:04.540Z,2336.00
2022-10-02T11:50:04.521Z,2208.00
2022-10-02T11:51:04.471Z,1816.00
2022-10-02T11:52:04.490Z,1864.00
2022-10-02T11:53:04.470Z,1560.00
2022-10-02T11:54:04.447Z,1676.00
2022-10-02T11:55:04.463Z,2924.00
2022-10-02T11:56:04.433Z,3432.00
2022-10-02T11:57:04.413Z,3280.00
2022-10-02T11:58:04.415Z,3596.00
2022-10-02T11:59:04.424Z,3980.00
2022-10-02T12:00:04.386Z,3896.00
2022-10-02T12:01:04.374Z,3160.00
2022-10-02T12:02:04.504Z,3180.00
2022-10-02T12:03:04.503Z,3600.00
2022-10-02T12:04:04.350Z,3384.00
2022-10-02T12:05:04.316Z,2668.00
2022-10-02T12:06:04.316Z,2460.00
2022-10-02T12:07:04.327Z,2344.00
2022-10-02T12:08:04.309Z,2336.00
2022-10-02T12:09:04.311Z,2612.00
2022-10-02T12:10:04.325Z,2188.00
2022-10-02T12:11:04.290Z,1600.00
2022-10-02T12:12:04.281Z,1416.00
2022-10-02T12:13:04.293Z,2104.00
2022-10-02T12:14:04.240Z,3580.00
2022-10-02T12:15:04.261Z,3360.00
2022-10-02T12:16:04.273Z,2896.00
2022-10-02T12:17:04.228Z,3200.00
2022-10-02T12:18:04.210Z,3052.00
2022-10-02T12:19:04.200Z,2392.00
2022-10-02T12:20:04.169Z,2116.00
2022-10-02T12:21:04.202Z,2424.00
2022-10-02T12:22:04.187Z,2264.00
2022-10-02T12:23:04.139Z,2004.00
2022-10-02T12:24:04.144Z,2036.00
2022-10-02T12:25:04.114Z,1960.00
2022-10-02T12:26:04.142Z,1740.00
2022-10-02T12:27:04.153Z,1560.00
2022-10-02T12:28:04.129Z,1628.00
2022-10-02T12:29:04.082Z,1624.00
2022-10-02T12:30:04.106Z,1420.00
2022-10-02T12:31:04.051Z,1240.00
2022-10-02T12:32:04.063Z,1184.00
2022-10-02T12:33:04.024Z,1160.00
2022-10-02T12:34:04.043Z,1104.00
2022-10-02T12:35:04.002Z,1104.00
2022-10-02T12:36:04.005Z,1160.00
2022-10-02T12:37:04.001Z,1356.00
2022-10-02T12:38:03.965Z,1484.00
2022-10-02T12:39:03.993Z,1744.00
2022-10-02T12:40:03.943Z,2008.00
2022-10-02T12:41:03.962Z,2220.00